sensor_id;sensor_type;location;lat;lon;timestamp;temperature;humidity
5924;DHT22;2987;50.884;14.818;2024-03-23T00:51:35;9.60;99.90
5924;DHT22;2987;50.884;14.818;2024-03-23T00:54:02;9.60;99.90
5924;DHT22;2987;50.884;14.818;2024-03-23T00:56:29;9.60;99.90
5924;DHT22;2987;50.884;14.818;2024-03-23T00:58:56;9.60;99.90
5924;DHT22;2987;50.884;14.818;2024-03-23T01:01:22;9.60;99.90
5924;DHT22;2987;50.884;14.818;2024-03-23T01:03:48;9.80;99.90
5924;DHT22;2987;50.884;14.818;2024-03-23T01:06:14;9.60;99.90
5924;DHT22;2987;50.884;14.818;2024-03-23T01:08:41;9.70;99.90
5924;DHT22;2987;50.884;14.818;2024-03-23T01:11:07;9.80;99.90
5924;DHT22;2987;50.884;14.818;2024-03-23T01:13:34;9.90;99.90
5924;DHT22;2987;50.884;14.818;2024-03-23T01:16:00;10.00;99.90
5924;DHT22;2987;50.884;14.818;2024-03-23T01:18:27;10.00;99.90
5924;DHT22;2987;50.884;14.818;2024-03-23T01:20:53;10.10;99.90
5924;DHT22;2987;50.884;14.818;2024-03-23T01:23:19;10.20;99.90
5924;DHT22;2987;50.884;14.818;2024-03-23T01:25:52;10.20;99.90
5924;DHT22;2987;50.884;14.818;2024-03-23T01:28:20;10.30;99.90
5924;DHT22;2987;50.884;14.818;2024-03-23T01:30:47;10.30;99.90
5924;DHT22;2987;50.884;14.818;2024-03-23T01:33:13;10.20;99.90
5924;DHT22;2987;50.884;14.818;2024-03-23T01:35:39;10.00;99.90
5924;DHT22;2987;50.884;14.818;2024-03-23T01:38:05;10.20;99.90
5924;DHT22;2987;50.884;14.818;2024-03-23T01:40:32;10.20;99.90
5924;DHT22;2987;50.884;14.818;2024-03-23T01:43:02;10.20;99.90
5924;DHT22;2987;50.884;14.818;2024-03-23T01:45:30;10.30;99.90
5924;DHT22;2987;50.884;14.818;2024-03-23T01:47:57;10.30;99.90
5924;DHT22;2987;50.884;14.818;2024-03-23T01:50:24;10.30;99.90
5924;DHT22;2987;50.884;14.818;2024-03-23T01:52:50;10.20;99.90
5924;DHT22;2987;50.884;14.818;2024-03-23T01:55:17;10.20;99.90
5924;DHT22;2987;50.884;14.818;2024-03-23T01:57:44;10.30;99.90
5924;DHT22;2987;50.884;14.818;2024-03-23T02:00:10;10.20;99.90
5924;DHT22;2987;50.884;14.818;2024-03-23T02:02:45;10.20;99.90
5924;DHT22;2987;50.884;14.818;2024-03-23T02:05:12;10.10;99.90
5924;DHT22;2987;50.884;14.818;2024-03-23T02:07:42;10.00;99.90
5924;DHT22;2987;50.884;14.818;2024-03-23T02:10:10;10.00;99.90
5924;DHT22;2987;50.884;14.818;2024-03-23T02:12:39;10.20;99.90
5924;DHT22;2987;50.884;14.818;2024-03-23T02:15:06;10.00;99.90
5924;DHT22;2987;50.884;14.818;2024-03-23T02:17:34;10.00;99.90
5924;DHT22;2987;50.884;14.818;2024-03-23T02:20:01;9.90;99.90
5924;DHT22;2987;50.884;14.818;2024-03-23T02:22:36;9.90;99.90
5924;DHT22;2987;50.884;14.818;2024-03-23T02:25:04;9.80;99.90
5924;DHT22;2987;50.884;14.818;2024-03-23T02:27:31;9.80;99.90
5924;DHT22;2987;50.884;14.818;2024-03-23T02:29:57;9.60;99.90
5924;DHT22;2987;50.884;14.818;2024-03-23T02:32:23;9.70;99.90
5924;DHT22;2987;50.884;14.818;2024-03-23T02:34:49;9.60;99.90
5924;DHT22;2987;50.884;14.818;2024-03-23T02:37:16;9.60;99.90
5924;DHT22;2987;50.884;14.818;2024-03-23T02:39:42;9.60;99.90
5924;DHT22;2987;50.884;14.818;2024-03-23T02:42:09;9.90;99.90
5924;DHT22;2987;50.884;14.818;2024-03-23T02:44:35;9.60;99.90
5924;DHT22;2987;50.884;14.818;2024-03-23T02:47:01;9.60;99.90
5924;DHT22;2987;50.884;14.818;2024-03-23T02:49:28;9.60;99.90
5924;DHT22;2987;50.884;14.818;2024-03-23T02:51:55;9.90;99.90
5924;DHT22;2987;50.884;14.818;2024-03-23T02:54:21;9.50;99.90
5924;DHT22;2987;50.884;14.818;2024-03-23T02:56:48;9.60;99.90
5924;DHT22;2987;50.884;14.818;2024-03-23T02:59:14;9.60;99.90
5924;DHT22;2987;50.884;14.818;2024-03-23T03:01:40;9.40;99.90
5924;DHT22;2987;50.884;14.818;2024-03-23T03:04:06;9.40;99.90
5924;DHT22;2987;50.884;14.818;2024-03-23T03:06:33;9.30;99.90
5924;DHT22;2987;50.884;14.818;2024-03-23T03:08:59;9.50;99.90
5924;DHT22;2987;50.884;14.818;2024-03-23T03:11:25;9.50;99.90
5924;DHT22;2987;50.884;14.818;2024-03-23T03:13:51;9.20;99.90
5924;DHT22;2987;50.884;14.818;2024-03-23T03:16:18;9.20;99.90
5924;DHT22;2987;50.884;14.818;2024-03-23T03:18:45;9.00;99.90
5924;DHT22;2987;50.884;14.818;2024-03-23T03:21:12;9.20;99.90
5924;DHT22;2987;50.884;14.818;2024-03-23T03:23:39;9.30;99.90
5924;DHT22;2987;50.884;14.818;2024-03-23T03:26:06;8.90;99.90
5924;DHT22;2987;50.884;14.818;2024-03-23T03:28:33;8.80;99.90
5924;DHT22;2987;50.884;14.818;2024-03-23T03:31:01;8.80;99.90
5924;DHT22;2987;50.884;14.818;2024-03-23T03:33:27;8.90;99.90
5924;DHT22;2987;50.884;14.818;2024-03-23T03:35:54;8.70;99.90
5924;DHT22;2987;50.884;14.818;2024-03-23T03:38:21;8.90;99.90
5924;DHT22;2987;50.884;14.818;2024-03-23T03:40:47;8.80;99.90
5924;DHT22;2987;50.884;14.818;2024-03-23T03:43:14;8.80;99.90
5924;DHT22;2987;50.884;14.818;2024-03-23T03:45:40;8.60;99.90
5924;DHT22;2987;50.884;14.818;2024-03-23T03:48:07;8.60;99.90
5924;DHT22;2987;50.884;14.818;2024-03-23T03:50:34;8.60;99.90
5924;DHT22;2987;50.884;14.818;2024-03-23T03:53:00;8.30;99.90
5924;DHT22;2987;50.884;14.818;2024-03-23T03:55:26;8.20;99.90
5924;DHT22;2987;50.884;14.818;2024-03-23T03:57:53;8.40;99.90
5924;DHT22;2987;50.884;14.818;2024-03-23T04:00:20;8.20;99.90
5924;DHT22;2987;50.884;14.818;2024-03-23T04:02:48;8.20;99.90
5924;DHT22;2987;50.884;14.818;2024-03-23T04:05:14;8.20;99.90
5924;DHT22;2987;50.884;14.818;2024-03-23T04:07:40;8.40;99.90
5924;DHT22;2987;50.884;14.818;2024-03-23T04:10:06;8.30;99.90
5924;DHT22;2987;50.884;14.818;2024-03-23T04:12:34;8.20;99.90
5924;DHT22;2987;50.884;14.818;2024-03-23T04:15:01;8.30;99.90
5924;DHT22;2987;50.884;14.818;2024-03-23T04:17:31;8.20;99.90
5924;DHT22;2987;50.884;14.818;2024-03-23T04:19:59;8.30;99.90
5924;DHT22;2987;50.884;14.818;2024-03-23T04:22:26;8.20;99.90
5924;DHT22;2987;50.884;14.818;2024-03-23T04:24:56;8.00;99.90
5924;DHT22;2987;50.884;14.818;2024-03-23T04:27:25;7.90;99.90
5924;DHT22;2987;50.884;14.818;2024-03-23T04:29:53;7.90;99.90
5924;DHT22;2987;50.884;14.818;2024-03-23T04:32:19;7.80;99.90
5924;DHT22;2987;50.884;14.818;2024-03-23T04:34:45;7.60;99.90
5924;DHT22;2987;50.884;14.818;2024-03-23T04:37:12;7.60;99.90
5924;DHT22;2987;50.884;14.818;2024-03-23T04:39:38;7.60;99.90
5924;DHT22;2987;50.884;14.818;2024-03-23T04:42:05;7.80;99.90
5924;DHT22;2987;50.884;14.818;2024-03-23T04:44:31;8.20;99.90
5924;DHT22;2987;50.884;14.818;2024-03-23T04:46:58;7.90;99.90
5924;DHT22;2987;50.884;14.818;2024-03-23T04:49:24;8.10;99.90
5924;DHT22;2987;50.884;14.818;2024-03-23T04:51:51;7.90;99.90
5924;DHT22;2987;50.884;14.818;2024-03-23T04:54:17;8.20;99.90
5924;DHT22;2987;50.884;14.818;2024-03-23T04:56:44;8.30;99.90
5924;DHT22;2987;50.884;14.818;2024-03-23T04:59:10;8.20;99.90
5924;DHT22;2987;50.884;14.818;2024-03-23T05:01:37;8.20;99.90
5924;DHT22;2987;50.884;14.818;2024-03-23T05:04:09;8.50;99.90
5924;DHT22;2987;50.884;14.818;2024-03-23T05:06:35;8.50;99.90
5924;DHT22;2987;50.884;14.818;2024-03-23T05:09:02;8.40;99.90
5924;DHT22;2987;50.884;14.818;2024-03-23T05:11:41;8.40;99.90
5924;DHT22;2987;50.884;14.818;2024-03-23T05:14:12;8.20;99.90
5924;DHT22;2987;50.884;14.818;2024-03-23T05:16:39;8.40;99.90
5924;DHT22;2987;50.884;14.818;2024-03-23T05:19:05;8.20;99.90
5924;DHT22;2987;50.884;14.818;2024-03-23T05:21:32;8.40;99.90
5924;DHT22;2987;50.884;14.818;2024-03-23T05:23:58;7.90;99.90
5924;DHT22;2987;50.884;14.818;2024-03-23T05:26:24;7.90;99.90
5924;DHT22;2987;50.884;14.818;2024-03-23T05:28:50;8.10;99.90
5924;DHT22;2987;50.884;14.818;2024-03-23T05:31:27;7.80;99.90
5924;DHT22;2987;50.884;14.818;2024-03-23T05:33:53;7.90;99.90
5924;DHT22;2987;50.884;14.818;2024-03-23T05:36:21;7.90;99.90
5924;DHT22;2987;50.884;14.818;2024-03-23T05:38:47;8.00;99.90
5924;DHT22;2987;50.884;14.818;2024-03-23T05:41:14;7.80;99.90
5924;DHT22;2987;50.884;14.818;2024-03-23T05:43:40;7.90;99.90
5924;DHT22;2987;50.884;14.818;2024-03-23T05:46:06;7.80;99.90
5924;DHT22;2987;50.884;14.818;2024-03-23T05:48:33;8.20;99.90
5924;DHT22;2987;50.884;14.818;2024-03-23T05:51:00;8.10;99.90
5924;DHT22;2987;50.884;14.818;2024-03-23T05:53:26;8.00;99.90
5924;DHT22;2987;50.884;14.818;2024-03-23T05:56:01;8.20;99.90
5924;DHT22;2987;50.884;14.818;2024-03-23T05:58:29;8.40;99.90
5924;DHT22;2987;50.884;14.818;2024-03-23T06:01:02;8.20;99.90
5924;DHT22;2987;50.884;14.818;2024-03-23T06:03:29;8.50;99.90
5924;DHT22;2987;50.884;14.818;2024-03-23T06:05:56;8.20;99.90
5924;DHT22;2987;50.884;14.818;2024-03-23T06:08:22;8.50;99.90
5924;DHT22;2987;50.884;14.818;2024-03-23T06:10:50;8.80;99.90
5924;DHT22;2987;50.884;14.818;2024-03-23T06:13:16;9.00;99.90
5924;DHT22;2987;50.884;14.818;2024-03-23T06:15:43;9.10;99.90
5924;DHT22;2987;50.884;14.818;2024-03-23T06:18:11;9.30;99.90
5924;DHT22;2987;50.884;14.818;2024-03-23T06:20:38;9.40;99.90
5924;DHT22;2987;50.884;14.818;2024-03-23T06:23:04;9.50;99.90
5924;DHT22;2987;50.884;14.818;2024-03-23T06:25:31;9.60;99.90
5924;DHT22;2987;50.884;14.818;2024-03-23T06:27:57;10.00;99.90
5924;DHT22;2987;50.884;14.818;2024-03-23T06:30:24;9.80;99.90
5924;DHT22;2987;50.884;14.818;2024-03-23T06:32:52;9.70;99.90
5924;DHT22;2987;50.884;14.818;2024-03-23T06:35:19;9.90;99.90
5924;DHT22;2987;50.884;14.818;2024-03-23T06:37:45;9.80;99.90
5924;DHT22;2987;50.884;14.818;2024-03-23T06:40:11;9.90;99.90
5924;DHT22;2987;50.884;14.818;2024-03-23T06:42:37;10.00;99.90
5924;DHT22;2987;50.884;14.818;2024-03-23T06:45:04;10.00;99.90
5924;DHT22;2987;50.884;14.818;2024-03-23T06:47:31;10.00;99.90
5924;DHT22;2987;50.884;14.818;2024-03-23T06:49:59;10.10;99.90
5924;DHT22;2987;50.884;14.818;2024-03-23T06:52:28;10.30;99.90
5924;DHT22;2987;50.884;14.818;2024-03-23T06:54:54;10.30;99.90
5924;DHT22;2987;50.884;14.818;2024-03-23T06:57:20;10.30;99.90
5924;DHT22;2987;50.884;14.818;2024-03-23T06:59:46;10.40;99.90
5924;DHT22;2987;50.884;14.818;2024-03-23T07:02:13;10.40;99.90
5924;DHT22;2987;50.884;14.818;2024-03-23T07:04:39;10.50;99.90
5924;DHT22;2987;50.884;14.818;2024-03-23T07:07:05;10.50;99.90
5924;DHT22;2987;50.884;14.818;2024-03-23T07:09:31;10.60;99.90
5924;DHT22;2987;50.884;14.818;2024-03-23T07:11:58;10.60;99.90
5924;DHT22;2987;50.884;14.818;2024-03-23T07:14:24;10.60;99.90
5924;DHT22;2987;50.884;14.818;2024-03-23T07:16:51;10.60;99.90
5924;DHT22;2987;50.884;14.818;2024-03-23T07:19:17;10.60;99.90
5924;DHT22;2987;50.884;14.818;2024-03-23T07:21:44;10.60;99.90
5924;DHT22;2987;50.884;14.818;2024-03-23T07:24:11;10.60;99.90
5924;DHT22;2987;50.884;14.818;2024-03-23T07:26:37;10.60;99.90
5924;DHT22;2987;50.884;14.818;2024-03-23T07:29:05;10.60;99.90
5924;DHT22;2987;50.884;14.818;2024-03-23T07:31:31;10.60;99.90
5924;DHT22;2987;50.884;14.818;2024-03-23T07:33:57;10.60;99.90
5924;DHT22;2987;50.884;14.818;2024-03-23T07:36:24;10.70;99.90
5924;DHT22;2987;50.884;14.818;2024-03-23T07:38:50;10.80;99.90
5924;DHT22;2987;50.884;14.818;2024-03-23T07:41:18;10.80;99.90
5924;DHT22;2987;50.884;14.818;2024-03-23T07:43:45;10.80;99.90
5924;DHT22;2987;50.884;14.818;2024-03-23T07:46:12;10.90;99.90
5924;DHT22;2987;50.884;14.818;2024-03-23T07:48:39;10.80;99.90
5924;DHT22;2987;50.884;14.818;2024-03-23T07:51:10;10.80;99.90
5924;DHT22;2987;50.884;14.818;2024-03-23T07:53:37;10.80;99.90
5924;DHT22;2987;50.884;14.818;2024-03-23T07:56:08;10.80;99.90
5924;DHT22;2987;50.884;14.818;2024-03-23T07:58:35;10.70;99.90
5924;DHT22;2987;50.884;14.818;2024-03-23T08:01:10;10.70;99.90
5924;DHT22;2987;50.884;14.818;2024-03-23T08:03:37;10.70;99.90
5924;DHT22;2987;50.884;14.818;2024-03-23T08:06:12;10.70;99.90
5924;DHT22;2987;50.884;14.818;2024-03-23T08:08:39;10.70;99.90
5924;DHT22;2987;50.884;14.818;2024-03-23T08:11:06;10.60;99.90
5924;DHT22;2987;50.884;14.818;2024-03-23T08:13:33;10.60;99.90
5924;DHT22;2987;50.884;14.818;2024-03-23T08:16:01;10.60;99.90
5924;DHT22;2987;50.884;14.818;2024-03-23T08:18:28;10.50;99.90
5924;DHT22;2987;50.884;14.818;2024-03-23T08:21:03;10.50;99.90
5924;DHT22;2987;50.884;14.818;2024-03-23T08:23:32;10.50;99.90
5924;DHT22;2987;50.884;14.818;2024-03-23T08:26:07;10.40;99.90
5924;DHT22;2987;50.884;14.818;2024-03-23T08:28:33;10.30;99.90
5924;DHT22;2987;50.884;14.818;2024-03-23T08:31:05;10.40;99.90
5924;DHT22;2987;50.884;14.818;2024-03-23T08:33:31;10.40;99.90
5924;DHT22;2987;50.884;14.818;2024-03-23T08:35:59;10.40;99.90
5924;DHT22;2987;50.884;14.818;2024-03-23T08:38:26;10.50;99.90
5924;DHT22;2987;50.884;14.818;2024-03-23T08:41:00;10.70;99.90
5924;DHT22;2987;50.884;14.818;2024-03-23T08:43:27;11.00;99.90
5924;DHT22;2987;50.884;14.818;2024-03-23T08:45:53;11.20;99.90
5924;DHT22;2987;50.884;14.818;2024-03-23T08:48:20;11.30;99.90
5924;DHT22;2987;50.884;14.818;2024-03-23T08:50:47;11.50;99.90
5924;DHT22;2987;50.884;14.818;2024-03-23T08:53:14;11.60;99.90
5924;DHT22;2987;50.884;14.818;2024-03-23T08:55:41;11.60;99.90
5924;DHT22;2987;50.884;14.818;2024-03-23T08:58:07;11.60;99.90
5924;DHT22;2987;50.884;14.818;2024-03-23T09:00:35;11.60;99.90
5924;DHT22;2987;50.884;14.818;2024-03-23T09:03:01;11.60;99.90
5924;DHT22;2987;50.884;14.818;2024-03-23T09:05:28;11.60;99.90
5924;DHT22;2987;50.884;14.818;2024-03-23T09:07:56;11.60;99.90
5924;DHT22;2987;50.884;14.818;2024-03-23T09:10:22;11.70;99.90
5924;DHT22;2987;50.884;14.818;2024-03-23T09:12:48;11.90;99.90
5924;DHT22;2987;50.884;14.818;2024-03-23T09:15:15;12.10;99.90
5924;DHT22;2987;50.884;14.818;2024-03-23T09:17:41;12.30;99.90
5924;DHT22;2987;50.884;14.818;2024-03-23T09:20:07;12.50;99.90
5924;DHT22;2987;50.884;14.818;2024-03-23T09:22:34;12.80;99.90
5924;DHT22;2987;50.884;14.818;2024-03-23T09:25:01;13.10;99.90
5924;DHT22;2987;50.884;14.818;2024-03-23T09:27:27;13.50;99.90
5924;DHT22;2987;50.884;14.818;2024-03-23T09:29:53;14.00;99.90
5924;DHT22;2987;50.884;14.818;2024-03-23T09:32:19;14.50;99.90
5924;DHT22;2987;50.884;14.818;2024-03-23T09:34:45;14.90;99.90
5924;DHT22;2987;50.884;14.818;2024-03-23T09:37:11;15.20;99.90
5924;DHT22;2987;50.884;14.818;2024-03-23T09:39:37;15.40;99.90
5924;DHT22;2987;50.884;14.818;2024-03-23T09:42:05;15.30;99.90
5924;DHT22;2987;50.884;14.818;2024-03-23T09:44:32;15.10;99.90
5924;DHT22;2987;50.884;14.818;2024-03-23T09:46:58;14.70;99.90
5924;DHT22;2987;50.884;14.818;2024-03-23T09:49:24;14.30;99.90
5924;DHT22;2987;50.884;14.818;2024-03-23T09:51:50;14.00;99.90
5924;DHT22;2987;50.884;14.818;2024-03-23T09:54:17;13.80;99.90
5924;DHT22;2987;50.884;14.818;2024-03-23T09:56:43;13.50;99.90
5924;DHT22;2987;50.884;14.818;2024-03-23T09:59:09;13.30;99.90
5924;DHT22;2987;50.884;14.818;2024-03-23T10:01:35;13.10;99.90
5924;DHT22;2987;50.884;14.818;2024-03-23T10:04:03;13.00;99.90
5924;DHT22;2987;50.884;14.818;2024-03-23T10:06:29;12.80;99.90
5924;DHT22;2987;50.884;14.818;2024-03-23T10:08:55;12.70;99.90
5924;DHT22;2987;50.884;14.818;2024-03-23T10:11:22;12.50;99.90
5924;DHT22;2987;50.884;14.818;2024-03-23T10:13:48;12.50;99.90
5924;DHT22;2987;50.884;14.818;2024-03-23T10:16:22;12.40;99.90
5924;DHT22;2987;50.884;14.818;2024-03-23T10:18:49;12.40;99.90
5924;DHT22;2987;50.884;14.818;2024-03-23T10:21:16;12.40;99.90
5924;DHT22;2987;50.884;14.818;2024-03-23T10:23:43;12.40;99.90
5924;DHT22;2987;50.884;14.818;2024-03-23T10:26:14;12.40;99.90
5924;DHT22;2987;50.884;14.818;2024-03-23T10:29:00;12.50;99.90
5924;DHT22;2987;50.884;14.818;2024-03-23T10:31:31;12.50;99.90
5924;DHT22;2987;50.884;14.818;2024-03-23T10:33:58;12.50;99.90
5924;DHT22;2987;50.884;14.818;2024-03-23T10:36:24;12.50;99.90
5924;DHT22;2987;50.884;14.818;2024-03-23T10:38:55;12.60;99.90
5924;DHT22;2987;50.884;14.818;2024-03-23T10:41:21;12.60;99.90
5924;DHT22;2987;50.884;14.818;2024-03-23T10:43:48;12.70;99.90
5924;DHT22;2987;50.884;14.818;2024-03-23T10:46:15;12.80;99.90
5924;DHT22;2987;50.884;14.818;2024-03-23T10:48:42;12.70;99.90
5924;DHT22;2987;50.884;14.818;2024-03-23T10:51:10;12.70;99.90
5924;DHT22;2987;50.884;14.818;2024-03-23T10:53:37;12.80;99.90
5924;DHT22;2987;50.884;14.818;2024-03-23T10:56:04;12.80;99.90
5924;DHT22;2987;50.884;14.818;2024-03-23T10:58:40;12.80;99.90
5924;DHT22;2987;50.884;14.818;2024-03-23T11:01:11;12.70;99.90
5924;DHT22;2987;50.884;14.818;2024-03-23T11:03:38;12.60;99.90
5924;DHT22;2987;50.884;14.818;2024-03-23T11:06:07;12.60;99.90
5924;DHT22;2987;50.884;14.818;2024-03-23T11:08:37;12.40;99.90
5924;DHT22;2987;50.884;14.818;2024-03-23T11:11:20;12.30;99.90
5924;DHT22;2987;50.884;14.818;2024-03-23T11:13:51;12.20;99.90
5924;DHT22;2987;50.884;14.818;2024-03-23T11:16:24;12.00;99.90
5924;DHT22;2987;50.884;14.818;2024-03-23T11:18:53;11.80;99.90
5924;DHT22;2987;50.884;14.818;2024-03-23T11:21:52;11.70;99.90
5924;DHT22;2987;50.884;14.818;2024-03-23T11:24:21;11.50;99.90
5924;DHT22;2987;50.884;14.818;2024-03-23T11:26:51;11.40;99.90
5924;DHT22;2987;50.884;14.818;2024-03-23T11:29:17;11.20;99.90
5924;DHT22;2987;50.884;14.818;2024-03-23T11:31:51;11.00;99.90
5924;DHT22;2987;50.884;14.818;2024-03-23T11:34:18;11.00;99.90
5924;DHT22;2987;50.884;14.818;2024-03-23T11:36:45;11.30;99.90
5924;DHT22;2987;50.884;14.818;2024-03-23T11:39:16;11.40;99.90
5924;DHT22;2987;50.884;14.818;2024-03-23T11:41:49;11.20;99.90
5924;DHT22;2987;50.884;14.818;2024-03-23T11:44:21;11.00;99.90
5924;DHT22;2987;50.884;14.818;2024-03-23T11:46:48;10.80;99.90
5924;DHT22;2987;50.884;14.818;2024-03-23T11:49:26;10.60;99.90
5924;DHT22;2987;50.884;14.818;2024-03-23T11:51:56;10.20;99.90
5924;DHT22;2987;50.884;14.818;2024-03-23T11:54:26;10.10;99.90
5924;DHT22;2987;50.884;14.818;2024-03-23T11:56:57;9.90;99.90
5924;DHT22;2987;50.884;14.818;2024-03-23T11:59:37;9.80;99.90
5924;DHT22;2987;50.884;14.818;2024-03-23T12:02:08;9.80;99.90
5924;DHT22;2987;50.884;14.818;2024-03-23T12:04:34;9.50;99.90
5924;DHT22;2987;50.884;14.818;2024-03-23T12:07:21;9.50;99.90
5924;DHT22;2987;50.884;14.818;2024-03-23T12:10:06;9.50;99.90
5924;DHT22;2987;50.884;14.818;2024-03-23T12:12:32;9.50;99.90
5924;DHT22;2987;50.884;14.818;2024-03-23T12:15:07;9.50;99.90
5924;DHT22;2987;50.884;14.818;2024-03-23T12:17:34;9.60;99.90
5924;DHT22;2987;50.884;14.818;2024-03-23T12:20:01;9.60;99.90
5924;DHT22;2987;50.884;14.818;2024-03-23T12:22:28;9.60;99.90
5924;DHT22;2987;50.884;14.818;2024-03-23T12:24:56;9.90;99.90
5924;DHT22;2987;50.884;14.818;2024-03-23T12:27:23;9.70;99.90
5924;DHT22;2987;50.884;14.818;2024-03-23T12:29:49;9.90;99.90
5924;DHT22;2987;50.884;14.818;2024-03-23T12:32:15;9.80;99.90
5924;DHT22;2987;50.884;14.818;2024-03-23T12:34:42;9.50;99.90
5924;DHT22;2987;50.884;14.818;2024-03-23T12:37:08;9.40;99.90
5924;DHT22;2987;50.884;14.818;2024-03-23T12:39:38;9.10;99.90
5924;DHT22;2987;50.884;14.818;2024-03-23T12:42:04;9.00;99.90
5924;DHT22;2987;50.884;14.818;2024-03-23T12:44:31;9.00;99.90
5924;DHT22;2987;50.884;14.818;2024-03-23T12:46:57;9.20;99.90
5924;DHT22;2987;50.884;14.818;2024-03-23T12:49:23;8.90;99.90
5924;DHT22;2987;50.884;14.818;2024-03-23T12:51:56;8.90;99.90
5924;DHT22;2987;50.884;14.818;2024-03-23T12:54:23;8.60;99.90
5924;DHT22;2987;50.884;14.818;2024-03-23T12:56:49;8.90;99.90
5924;DHT22;2987;50.884;14.818;2024-03-23T12:59:15;8.70;99.90
5924;DHT22;2987;50.884;14.818;2024-03-23T13:01:42;9.20;99.90
5924;DHT22;2987;50.884;14.818;2024-03-23T13:04:09;8.80;99.90
5924;DHT22;2987;50.884;14.818;2024-03-23T13:06:35;8.90;99.90
5924;DHT22;2987;50.884;14.818;2024-03-23T13:09:02;8.90;99.90
5924;DHT22;2987;50.884;14.818;2024-03-23T13:11:31;9.10;99.90
5924;DHT22;2987;50.884;14.818;2024-03-23T13:13:57;9.40;99.90
5924;DHT22;2987;50.884;14.818;2024-03-23T13:16:24;9.20;99.90
5924;DHT22;2987;50.884;14.818;2024-03-23T13:18:50;9.50;99.90
5924;DHT22;2987;50.884;14.818;2024-03-23T13:21:16;9.30;99.90
5924;DHT22;2987;50.884;14.818;2024-03-23T13:23:42;9.90;99.90
5924;DHT22;2987;50.884;14.818;2024-03-23T13:26:11;9.90;99.90
5924;DHT22;2987;50.884;14.818;2024-03-23T13:28:37;9.80;99.90
5924;DHT22;2987;50.884;14.818;2024-03-23T13:31:03;9.90;99.90
5924;DHT22;2987;50.884;14.818;2024-03-23T13:33:30;9.80;99.90
5924;DHT22;2987;50.884;14.818;2024-03-23T13:35:58;10.00;99.90
5924;DHT22;2987;50.884;14.818;2024-03-23T13:38:24;9.90;99.90
5924;DHT22;2987;50.884;14.818;2024-03-23T13:40:55;10.20;99.90
5924;DHT22;2987;50.884;14.818;2024-03-23T13:43:23;9.70;99.90
5924;DHT22;2987;50.884;14.818;2024-03-23T13:46:01;9.70;99.90
5924;DHT22;2987;50.884;14.818;2024-03-23T13:48:28;9.90;99.90
5924;DHT22;2987;50.884;14.818;2024-03-23T13:51:13;9.70;99.90
5924;DHT22;2987;50.884;14.818;2024-03-23T13:53:39;9.40;99.90
5924;DHT22;2987;50.884;14.818;2024-03-23T13:56:05;9.50;99.90
5924;DHT22;2987;50.884;14.818;2024-03-23T13:58:31;9.40;99.90
5924;DHT22;2987;50.884;14.818;2024-03-23T14:00:57;9.30;99.90
5924;DHT22;2987;50.884;14.818;2024-03-23T14:03:26;9.30;99.90
5924;DHT22;2987;50.884;14.818;2024-03-23T14:05:58;9.00;99.90
5924;DHT22;2987;50.884;14.818;2024-03-23T14:08:24;9.30;99.90
5924;DHT22;2987;50.884;14.818;2024-03-23T14:10:50;9.00;99.90
5924;DHT22;2987;50.884;14.818;2024-03-23T14:13:17;8.90;99.90
5924;DHT22;2987;50.884;14.818;2024-03-23T14:15:44;8.90;99.90
5924;DHT22;2987;50.884;14.818;2024-03-23T14:18:10;9.30;99.90
5924;DHT22;2987;50.884;14.818;2024-03-23T14:20:36;9.40;99.90
5924;DHT22;2987;50.884;14.818;2024-03-23T14:23:02;9.40;99.90
5924;DHT22;2987;50.884;14.818;2024-03-23T14:25:28;9.60;99.90
5924;DHT22;2987;50.884;14.818;2024-03-23T14:27:55;9.60;99.90
5924;DHT22;2987;50.884;14.818;2024-03-23T14:30:22;9.60;99.90
5924;DHT22;2987;50.884;14.818;2024-03-23T14:32:48;9.20;99.90
5924;DHT22;2987;50.884;14.818;2024-03-23T14:35:14;9.20;99.90
5924;DHT22;2987;50.884;14.818;2024-03-23T14:37:40;8.70;99.90
5924;DHT22;2987;50.884;14.818;2024-03-23T14:40:08;8.60;99.90
5924;DHT22;2987;50.884;14.818;2024-03-23T14:42:34;8.90;99.90
5924;DHT22;2987;50.884;14.818;2024-03-23T14:45:00;8.40;99.90
5924;DHT22;2987;50.884;14.818;2024-03-23T14:47:26;8.60;99.90
5924;DHT22;2987;50.884;14.818;2024-03-23T14:49:52;8.60;99.90
5924;DHT22;2987;50.884;14.818;2024-03-23T14:52:19;8.80;99.90
5924;DHT22;2987;50.884;14.818;2024-03-23T14:54:46;8.50;99.90
5924;DHT22;2987;50.884;14.818;2024-03-23T14:57:12;8.40;99.90
5924;DHT22;2987;50.884;14.818;2024-03-23T14:59:39;8.40;99.90
5924;DHT22;2987;50.884;14.818;2024-03-23T15:02:07;8.50;99.90
5924;DHT22;2987;50.884;14.818;2024-03-23T15:04:34;8.50;99.90
5924;DHT22;2987;50.884;14.818;2024-03-23T15:07:00;8.90;99.90
5924;DHT22;2987;50.884;14.818;2024-03-23T15:09:27;8.50;99.90
5924;DHT22;2987;50.884;14.818;2024-03-23T15:11:53;8.90;99.90
5924;DHT22;2987;50.884;14.818;2024-03-23T15:14:23;8.60;99.90
5924;DHT22;2987;50.884;14.818;2024-03-23T15:16:50;8.90;99.90
5924;DHT22;2987;50.884;14.818;2024-03-23T15:19:16;8.60;99.90
5924;DHT22;2987;50.884;14.818;2024-03-23T15:21:43;8.90;99.90
5924;DHT22;2987;50.884;14.818;2024-03-23T15:24:10;8.60;99.90
5924;DHT22;2987;50.884;14.818;2024-03-23T15:26:37;8.80;99.90
5924;DHT22;2987;50.884;14.818;2024-03-23T15:29:03;8.50;99.90
5924;DHT22;2987;50.884;14.818;2024-03-23T15:31:37;8.60;99.90
5924;DHT22;2987;50.884;14.818;2024-03-23T15:34:03;8.70;99.90
5924;DHT22;2987;50.884;14.818;2024-03-23T15:36:30;8.40;99.90
5924;DHT22;2987;50.884;14.818;2024-03-23T15:38:57;8.20;99.90
5924;DHT22;2987;50.884;14.818;2024-03-23T15:41:23;8.20;99.90
5924;DHT22;2987;50.884;14.818;2024-03-23T15:43:51;8.20;99.90
5924;DHT22;2987;50.884;14.818;2024-03-23T15:46:17;8.10;99.90
5924;DHT22;2987;50.884;14.818;2024-03-23T15:48:45;8.50;99.90
5924;DHT22;2987;50.884;14.818;2024-03-23T15:51:15;8.20;99.90
5924;DHT22;2987;50.884;14.818;2024-03-23T15:53:41;8.10;99.90
5924;DHT22;2987;50.884;14.818;2024-03-23T15:56:07;7.90;99.90
5924;DHT22;2987;50.884;14.818;2024-03-23T15:58:34;7.90;99.90
5924;DHT22;2987;50.884;14.818;2024-03-23T16:01:05;7.90;99.90
5924;DHT22;2987;50.884;14.818;2024-03-23T16:03:32;7.90;99.90
5924;DHT22;2987;50.884;14.818;2024-03-23T16:06:03;8.00;99.90
5924;DHT22;2987;50.884;14.818;2024-03-23T16:08:30;7.80;99.90
5924;DHT22;2987;50.884;14.818;2024-03-23T16:11:04;7.90;99.90
5924;DHT22;2987;50.884;14.818;2024-03-23T16:13:35;7.80;99.90
5924;DHT22;2987;50.884;14.818;2024-03-23T16:16:02;7.60;99.90
5924;DHT22;2987;50.884;14.818;2024-03-23T16:18:37;7.60;99.90
5924;DHT22;2987;50.884;14.818;2024-03-23T16:21:06;7.60;99.90
5924;DHT22;2987;50.884;14.818;2024-03-23T16:23:33;7.50;99.90
5924;DHT22;2987;50.884;14.818;2024-03-23T16:26:00;7.50;99.90
5924;DHT22;2987;50.884;14.818;2024-03-23T16:28:34;7.70;99.90
5924;DHT22;2987;50.884;14.818;2024-03-23T16:31:06;7.50;99.90
5924;DHT22;2987;50.884;14.818;2024-03-23T16:33:33;7.40;99.90
5924;DHT22;2987;50.884;14.818;2024-03-23T16:36:08;7.30;99.90
5924;DHT22;2987;50.884;14.818;2024-03-23T16:38:39;7.30;99.90
5924;DHT22;2987;50.884;14.818;2024-03-23T16:41:10;7.20;99.90
5924;DHT22;2987;50.884;14.818;2024-03-23T16:43:44;7.20;99.90
5924;DHT22;2987;50.884;14.818;2024-03-23T16:46:14;7.20;99.90
5924;DHT22;2987;50.884;14.818;2024-03-23T16:48:43;7.40;99.90